Time;durP1;ratioP1;P1;durP2;ratioP2;P2;SDS_P1;SDS_P2;PMS_P1;PMS_P2;Temp;Humidity;BMP_temperature;BMP_pressure;BME280_temperature;BME280_humidity;BME280_pressure;Samples;Min_cycle;Max_cycle;Signal;HPM_P1;HPM_P2
2022/12/12 00:00:34;;;;;;;16.63;11.63;;;3.60;99.90;;;;;;5053283;28;20213;-63
2022/12/12 00:03:01;;;;;;;19.40;12.47;;;3.50;99.90;;;;;;5052370;28;20244;-63
2022/12/12 00:05:29;;;;;;;20.00;12.47;;;3.50;99.90;;;;;;5052673;28;20629;-61
2022/12/12 00:07:56;;;;;;;18.07;12.13;;;3.50;99.90;;;;;;5052829;28;20293;-64
2022/12/12 00:10:23;;;;;;;18.53;12.23;;;3.40;99.90;;;;;;5052984;28;20658;-63
2022/12/12 00:12:49;;;;;;;17.13;12.03;;;3.40;99.90;;;;;;5051819;28;20209;-63
2022/12/12 00:15:16;;;;;;;20.67;13.50;;;3.30;99.90;;;;;;5052231;28;20239;-64
2022/12/12 00:17:43;;;;;;;19.07;12.77;;;3.30;99.90;;;;;;5052695;28;20225;-63
2022/12/12 00:20:10;;;;;;;19.13;12.80;;;3.20;99.90;;;;;;5052710;28;20213;-62
2022/12/12 00:22:38;;;;;;;19.80;12.60;;;3.00;99.90;;;;;;5052002;28;20212;-64
2022/12/12 00:25:05;;;;;;;18.77;12.30;;;2.90;99.90;;;;;;5052542;28;20233;-62
2022/12/12 00:27:32;;;;;;;17.37;12.27;;;2.90;99.90;;;;;;5053214;28;20207;-62
2022/12/12 00:29:59;;;;;;;18.67;12.90;;;3.00;99.90;;;;;;5052863;28;20205;-65
2022/12/12 00:32:26;;;;;;;17.73;12.87;;;3.00;99.90;;;;;;5052213;28;20210;-62
2022/12/12 00:34:53;;;;;;;18.97;12.73;;;2.90;99.90;;;;;;5052495;28;20237;-65
2022/12/12 00:37:19;;;;;;;19.47;12.97;;;3.00;99.90;;;;;;5052370;28;20236;-62
2022/12/12 00:39:47;;;;;;;22.67;13.70;;;3.00;99.90;;;;;;5052446;28;20221;-62
2022/12/12 00:42:14;;;;;;;19.33;13.57;;;3.10;99.90;;;;;;5052252;28;20206;-61
2022/12/12 00:44:41;;;;;;;20.40;13.87;;;3.10;99.90;;;;;;5053085;28;20229;-63
2022/12/12 00:47:08;;;;;;;20.70;14.17;;;3.10;99.90;;;;;;5053246;28;20198;-62
2022/12/12 00:49:35;;;;;;;22.67;15.07;;;3.20;99.90;;;;;;5052865;28;20240;-63
2022/12/12 00:52:02;;;;;;;19.83;13.97;;;3.20;99.90;;;;;;5052143;28;20665;-62
2022/12/12 00:54:29;;;;;;;19.53;13.80;;;3.10;99.90;;;;;;5053030;28;20230;-62
2022/12/12 00:56:57;;;;;;;18.13;13.47;;;3.10;99.90;;;;;;5053064;28;20222;-62
2022/12/12 00:59:23;;;;;;;18.87;13.03;;;3.10;99.90;;;;;;5053702;28;20217;-62
2022/12/12 01:01:50;;;;;;;19.90;13.90;;;3.10;99.90;;;;;;5053437;28;20212;-62
2022/12/12 01:04:17;;;;;;;22.33;14.87;;;3.10;99.90;;;;;;5053779;28;20225;-62
2022/12/12 01:06:44;;;;;;;21.10;13.87;;;3.10;99.90;;;;;;5053648;28;20206;-63
2022/12/12 01:09:10;;;;;;;19.80;14.00;;;3.10;99.90;;;;;;5052781;28;20216;-62
2022/12/12 01:11:37;;;;;;;20.37;14.40;;;3.00;99.90;;;;;;5052505;28;20368;-62
2022/12/12 01:14:05;;;;;;;21.43;14.53;;;3.10;99.90;;;;;;5052758;28;20225;-63
2022/12/12 01:16:32;;;;;;;19.03;14.40;;;3.00;99.90;;;;;;5052083;28;20206;-63
2022/12/12 01:18:59;;;;;;;22.10;15.47;;;3.00;99.90;;;;;;5052220;28;20205;-63
2022/12/12 01:21:26;;;;;;;24.23;16.20;;;2.90;99.90;;;;;;5052223;28;20210;-63
2022/12/12 01:23:53;;;;;;;22.60;15.67;;;3.00;99.90;;;;;;5053091;28;20216;-63
2022/12/12 01:26:22;;;;;;;21.77;14.87;;;3.00;99.90;;;;;;5056849;28;20304;-64
2022/12/12 01:28:50;;;;;;;21.97;14.73;;;3.00;99.90;;;;;;5058276;28;20216;-62
2022/12/12 01:31:18;;;;;;;20.57;15.10;;;3.00;99.90;;;;;;5056188;28;20305;-63
2022/12/12 01:33:45;;;;;;;24.37;15.87;;;3.00;99.90;;;;;;5058183;28;20292;-62
2022/12/12 01:36:15;;;;;;;23.33;15.77;;;3.00;99.90;;;;;;5063595;22;20229;-54
2022/12/12 01:38:43;;;;;;;25.10;16.30;;;2.90;99.90;;;;;;5022862;28;20222;-53
2022/12/12 01:41:10;;;;;;;25.63;16.13;;;2.70;99.90;;;;;;5016128;28;20253;-54
2022/12/12 01:43:37;;;;;;;23.77;17.20;;;2.60;99.90;;;;;;5016733;28;20206;-54
2022/12/12 01:46:40;;;;;;;23.33;15.93;;;2.50;99.90;;;;;;5016827;28;20607;-54
2022/12/12 01:49:22;;;;;;;23.30;15.73;;;2.50;99.90;;;;;;5016600;28;20264;-55
2022/12/12 01:51:52;;;;;;;22.73;16.03;;;2.50;99.90;;;;;;5016148;28;20242;-54
2022/12/12 01:54:24;;;;;;;23.17;16.37;;;2.50;99.90;;;;;;5016305;28;20301;-56
2022/12/12 01:56:53;;;;;;;24.20;16.07;;;2.40;99.90;;;;;;5015936;28;20321;-54
2022/12/12 01:59:22;;;;;;;23.73;16.00;;;2.50;99.90;;;;;;5016285;28;20693;-54
2022/12/12 02:01:49;;;;;;;22.80;16.17;;;2.50;99.90;;;;;;5015677;28;20214;-55
2022/12/12 02:04:18;;;;;;;25.07;15.67;;;2.50;99.90;;;;;;5016125;28;20210;-54
2022/12/12 02:06:47;;;;;;;24.27;15.43;;;2.60;99.90;;;;;;5015830;28;20634;-54
2022/12/12 02:09:15;;;;;;;23.70;15.93;;;2.60;99.90;;;;;;5015904;28;20734;-55
2022/12/12 02:11:46;;;;;;;24.67;15.67;;;2.60;99.90;;;;;;5015327;28;20690;-54
2022/12/12 02:14:14;;;;;;;23.17;14.43;;;2.60;99.90;;;;;;5016004;28;20207;-54
2022/12/12 02:17:05;;;;;;;19.53;13.97;;;2.60;99.90;;;;;;5015832;28;20302;-55
2022/12/12 02:20:01;;;;;;;20.13;13.43;;;2.40;99.90;;;;;;5016700;28;20207;-55
2022/12/12 02:22:51;;;;;;;20.10;13.53;;;2.20;99.90;;;;;;5013753;28;20209;-55
2022/12/12 02:25:48;;;;;;;18.53;12.03;;;2.00;99.90;;;;;;5016828;28;20231;-55
2022/12/12 02:29:04;;;;;;;17.77;12.67;;;1.80;99.90;;;;;;5011989;28;20199;-54
2022/12/12 02:31:37;;;;;;;18.13;12.40;;;1.60;99.90;;;;;;4955514;29;20595;-55
2022/12/12 02:34:13;;;;;;;20.00;13.20;;;1.50;99.90;;;;;;4955843;29;20215;-55
2022/12/12 02:36:47;;;;;;;19.93;13.47;;;1.40;99.90;;;;;;4986779;28;20220;-55
2022/12/12 02:39:22;;;;;;;19.00;13.37;;;1.30;99.90;;;;;;5015875;28;20207;-54
2022/12/12 02:41:53;;;;;;;20.63;12.80;;;1.20;99.90;;;;;;5015466;28;20218;-54
2022/12/12 02:44:26;;;;;;;18.63;13.10;;;1.10;99.90;;;;;;5015626;28;20218;-54
2022/12/12 02:47:00;;;;;;;19.63;13.43;;;1.00;99.90;;;;;;5015171;28;20667;-55
2022/12/12 02:49:31;;;;;;;20.40;13.00;;;1.00;99.90;;;;;;5015421;28;20241;-54
2022/12/12 02:51:59;;;;;;;19.47;13.20;;;1.00;99.90;;;;;;5014634;28;20298;-55
2022/12/12 02:54:25;;;;;;;18.87;13.07;;;1.00;99.90;;;;;;5015342;28;20207;-54
2022/12/12 02:56:55;;;;;;;20.50;13.23;;;1.00;99.90;;;;;;5015015;28;20675;-55
2022/12/12 02:59:25;;;;;;;20.00;13.40;;;0.90;99.90;;;;;;5014874;28;20266;-54
2022/12/12 03:02:28;;;;;;;19.97;13.83;;;0.90;99.90;;;;;;5014942;28;20256;-56
2022/12/12 03:08:06;;;;;;;20.57;13.20;;;0.80;99.90;;;;;;5014839;28;20197;-54
2022/12/12 03:10:46;;;;;;;20.67;12.97;;;0.80;99.90;;;;;;5015035;28;20234;-55
2022/12/12 03:13:24;;;;;;;20.03;12.80;;;0.60;99.90;;;;;;5014361;28;20295;-55
2022/12/12 03:16:00;;;;;;;17.73;12.40;;;0.60;99.90;;;;;;5014591;28;20231;-54
2022/12/12 03:18:34;;;;;;;19.70;13.10;;;0.50;99.90;;;;;;5014735;28;20218;-54
2022/12/12 03:21:05;;;;;;;18.00;13.00;;;0.50;99.90;;;;;;5014669;28;20575;-54
2022/12/12 03:23:37;;;;;;;19.77;12.73;;;0.60;99.90;;;;;;5014901;28;20230;-54
2022/12/12 03:26:10;;;;;;;21.67;14.17;;;0.50;99.90;;;;;;5014602;28;20230;-54
2022/12/12 03:28:41;;;;;;;23.90;14.70;;;0.50;99.90;;;;;;5014558;28;20218;-55
2022/12/12 03:31:11;;;;;;;20.53;13.00;;;0.50;99.90;;;;;;5014225;28;20214;-54
2022/12/12 03:33:44;;;;;;;19.83;13.27;;;0.50;99.90;;;;;;5014436;28;20667;-54
2022/12/12 03:36:15;;;;;;;22.43;13.80;;;0.50;99.90;;;;;;5014756;28;20266;-54
2022/12/12 03:38:55;;;;;;;21.63;13.57;;;0.60;99.90;;;;;;5014261;28;20242;-54
2022/12/12 03:41:24;;;;;;;19.53;13.07;;;0.60;99.90;;;;;;5013964;28;20203;-54
2022/12/12 03:43:59;;;;;;;23.40;15.43;;;0.60;99.90;;;;;;5014290;28;20210;-54
2022/12/12 03:46:32;;;;;;;23.00;14.37;;;0.60;99.90;;;;;;5014221;28;20226;-54
2022/12/12 03:49:04;;;;;;;22.13;13.97;;;0.60;99.90;;;;;;5014063;28;20249;-53
2022/12/12 03:51:35;;;;;;;21.53;13.90;;;0.60;99.90;;;;;;5013338;28;20301;-54
2022/12/12 03:54:08;;;;;;;21.50;13.90;;;0.70;99.90;;;;;;5014066;28;20675;-54
2022/12/12 03:56:40;;;;;;;20.33;13.93;;;0.80;99.90;;;;;;5013995;28;20214;-54
2022/12/12 03:59:09;;;;;;;19.33;13.07;;;1.00;99.90;;;;;;5013832;28;20322;-54
2022/12/12 04:01:40;;;;;;;18.73;12.97;;;1.00;99.90;;;;;;5013425;28;20203;-55
2022/12/12 04:04:16;;;;;;;18.33;12.33;;;1.10;99.90;;;;;;5013701;28;20230;-54
2022/12/12 04:06:48;;;;;;;19.67;13.80;;;1.10;99.90;;;;;;5014089;28;20213;-53
2022/12/12 04:15:16;;;;;;;26.17;17.37;;;1.00;99.90;;;;;;5013626;28;20348;-53
2022/12/12 04:17:52;;;;;;;21.73;14.57;;;1.00;99.90;;;;;;5013634;28;20265;-53
2022/12/12 04:23:19;;;;;;;23.70;14.67;;;1.20;99.90;;;;;;5013134;28;20651;-53
2022/12/12 04:28:50;;;;;;;25.40;17.03;;;1.30;99.90;;;;;;5013469;28;20379;-53
2022/12/12 04:31:19;;;;;;;30.03;19.80;;;1.40;99.90;;;;;;5012744;28;20693;-54
2022/12/12 04:33:51;;;;;;;30.30;19.27;;;1.40;99.90;;;;;;5013352;28;20215;-54
2022/12/12 04:36:22;;;;;;;24.10;14.83;;;1.50;99.90;;;;;;5013252;28;20236;-55
2022/12/12 04:38:51;;;;;;;21.53;14.03;;;1.50;99.90;;;;;;5013537;28;20801;-54
2022/12/12 04:41:20;;;;;;;22.70;14.47;;;1.60;99.90;;;;;;5013325;28;20298;-54
2022/12/12 04:43:49;;;;;;;20.47;13.73;;;1.60;99.90;;;;;;5013609;28;20207;-55
2022/12/12 04:46:18;;;;;;;20.87;15.20;;;1.50;99.90;;;;;;5013054;28;20226;-54
2022/12/12 04:48:50;;;;;;;22.13;14.57;;;1.60;99.90;;;;;;5013247;28;20199;-54
2022/12/12 04:51:23;;;;;;;22.10;14.07;;;1.70;99.90;;;;;;5012693;28;20325;-54
2022/12/12 04:53:56;;;;;;;21.23;14.70;;;1.70;99.90;;;;;;5013030;28;20230;-54
2022/12/12 04:56:29;;;;;;;25.53;15.70;;;1.70;99.90;;;;;;5012711;28;20732;-53
2022/12/12 04:58:57;;;;;;;23.47;15.60;;;1.60;99.90;;;;;;5013152;28;20231;-54
2022/12/12 05:01:32;;;;;;;25.33;16.07;;;1.60;99.90;;;;;;5012037;28;20242;-53
2022/12/12 05:04:03;;;;;;;26.17;16.30;;;1.60;99.90;;;;;;5012895;28;20268;-54
2022/12/12 05:06:39;;;;;;;24.80;16.20;;;1.60;99.90;;;;;;5012721;28;20237;-55
2022/12/12 05:09:07;;;;;;;21.20;14.70;;;1.70;99.90;;;;;;5013136;28;20198;-55
2022/12/12 05:11:34;;;;;;;22.67;15.57;;;1.70;99.90;;;;;;5012486;28;20265;-54
2022/12/12 05:14:01;;;;;;;22.73;15.53;;;1.80;99.90;;;;;;5013276;28;20211;-53
2022/12/12 05:16:32;;;;;;;26.20;15.67;;;1.90;99.90;;;;;;5012549;28;20229;-54
2022/12/12 05:18:59;;;;;;;21.73;14.77;;;1.90;99.90;;;;;;5012584;28;20229;-53
2022/12/12 05:21:26;;;;;;;27.23;17.27;;;1.90;99.90;;;;;;5012494;28;20242;-54
2022/12/12 05:23:54;;;;;;;22.63;14.80;;;1.90;99.90;;;;;;5012728;28;20203;-54
2022/12/12 05:26:24;;;;;;;22.83;15.17;;;2.00;99.90;;;;;;5012550;28;20605;-54
2022/12/12 05:28:51;;;;;;;22.87;15.70;;;2.00;99.90;;;;;;5012807;28;20297;-54
2022/12/12 05:31:18;;;;;;;24.50;15.90;;;2.10;99.90;;;;;;5012509;28;20211;-56
2022/12/12 05:33:45;;;;;;;26.73;16.73;;;2.20;99.90;;;;;;5012692;28;20211;-54
2022/12/12 05:36:13;;;;;;;24.33;17.37;;;2.20;99.90;;;;;;5012724;28;20235;-54
2022/12/12 05:38:40;;;;;;;23.07;15.43;;;2.20;99.90;;;;;;5012863;28;20727;-54
2022/12/12 05:41:10;;;;;;;23.57;16.37;;;2.20;99.90;;;;;;5013177;28;20211;-54
2022/12/12 05:43:37;;;;;;;25.80;16.83;;;2.30;99.90;;;;;;5012319;28;20215;-54
2022/12/12 05:46:05;;;;;;;22.63;15.90;;;2.30;99.90;;;;;;5012251;28;20582;-54
2022/12/12 05:48:32;;;;;;;25.73;17.37;;;2.20;99.90;;;;;;5012712;28;20203;-53
2022/12/12 05:51:01;;;;;;;24.70;16.97;;;2.20;99.90;;;;;;5012802;28;20207;-54
2022/12/12 05:53:28;;;;;;;25.67;16.27;;;2.10;99.90;;;;;;5012449;28;20210;-53
2022/12/12 05:55:55;;;;;;;23.47;15.87;;;1.90;99.90;;;;;;5012637;28;20314;-54
2022/12/12 05:58:23;;;;;;;24.43;16.77;;;1.90;99.90;;;;;;5012538;28;20605;-54
2022/12/12 06:00:52;;;;;;;30.57;18.57;;;1.90;99.90;;;;;;5012186;28;20303;-54
2022/12/12 06:03:19;;;;;;;25.97;16.37;;;1.90;99.90;;;;;;5012250;28;20206;-54
2022/12/12 06:05:46;;;;;;;29.63;17.30;;;1.90;99.90;;;;;;5012422;28;20233;-54
2022/12/12 06:08:13;;;;;;;26.10;16.90;;;1.90;99.90;;;;;;5012435;28;20293;-54
2022/12/12 06:10:40;;;;;;;24.87;16.80;;;1.90;99.90;;;;;;5012765;28;20257;-54
2022/12/12 06:13:07;;;;;;;35.00;20.43;;;1.80;99.90;;;;;;5015746;28;20219;-54
2022/12/12 06:15:39;;;;;;;25.73;16.70;;;1.90;99.90;;;;;;5015856;28;20249;-54
2022/12/12 06:18:06;;;;;;;25.17;16.13;;;1.90;99.90;;;;;;5015929;28;20301;-54
2022/12/12 06:20:33;;;;;;;23.30;16.43;;;1.90;99.90;;;;;;5015735;28;20235;-53
2022/12/12 06:23:00;;;;;;;25.43;17.10;;;1.90;99.90;;;;;;5015470;28;20226;-54
2022/12/12 06:25:27;;;;;;;24.23;17.30;;;1.90;99.90;;;;;;5015844;28;20238;-53
2022/12/12 06:27:54;;;;;;;26.57;16.90;;;1.80;99.90;;;;;;5015619;28;20230;-54
2022/12/12 06:30:20;;;;;;;24.60;17.20;;;1.80;99.90;;;;;;5015725;28;20298;-53
2022/12/12 06:32:48;;;;;;;25.47;17.40;;;1.70;99.90;;;;;;5015330;28;20207;-53
2022/12/12 06:35:16;;;;;;;26.43;17.00;;;1.80;99.90;;;;;;5015719;28;20235;-55
2022/12/12 06:37:42;;;;;;;26.03;17.40;;;1.80;99.90;;;;;;5015637;28;20277;-53
2022/12/12 06:40:11;;;;;;;27.67;18.20;;;1.90;99.90;;;;;;5016166;28;20206;-53
2022/12/12 06:42:38;;;;;;;28.67;17.63;;;1.90;99.90;;;;;;5015832;28;20559;-55
2022/12/12 06:45:05;;;;;;;29.53;18.40;;;1.80;99.90;;;;;;5015448;28;20596;-54
2022/12/12 06:47:32;;;;;;;25.93;17.30;;;1.80;99.90;;;;;;5015230;28;20229;-53
2022/12/12 06:50:01;;;;;;;23.70;16.67;;;1.80;99.90;;;;;;5015143;28;20207;-54
2022/12/12 06:52:28;;;;;;;27.00;18.07;;;1.80;99.90;;;;;;5014701;28;20206;-55
2022/12/12 06:54:55;;;;;;;26.40;18.03;;;1.80;99.90;;;;;;5014813;28;20231;-54
2022/12/12 06:57:21;;;;;;;27.10;17.73;;;1.90;99.90;;;;;;5015269;28;20234;-53
2022/12/12 06:59:50;;;;;;;28.40;17.37;;;1.90;99.90;;;;;;5015317;28;20234;-54
2022/12/12 07:02:16;;;;;;;27.97;17.57;;;2.00;99.90;;;;;;5014421;28;20203;-54
2022/12/12 07:04:43;;;;;;;26.47;17.83;;;2.00;99.90;;;;;;5014623;28;20723;-54
2022/12/12 07:07:11;;;;;;;25.13;17.63;;;2.00;99.90;;;;;;5014727;28;20207;-54
2022/12/12 07:09:38;;;;;;;26.37;17.80;;;1.90;99.90;;;;;;5015137;28;20210;-62
2022/12/12 07:12:05;;;;;;;27.00;17.53;;;1.90;99.90;;;;;;5014733;28;20210;-55
2022/12/12 07:14:32;;;;;;;29.93;18.73;;;1.80;99.90;;;;;;5014948;28;20706;-54
2022/12/12 07:16:59;;;;;;;26.30;18.50;;;1.80;99.90;;;;;;5015159;28;20207;-54
2022/12/12 07:19:26;;;;;;;27.37;17.90;;;1.80;99.90;;;;;;5014742;28;20222;-54
2022/12/12 07:21:53;;;;;;;26.53;17.43;;;1.90;99.90;;;;;;5014150;28;20207;-56
2022/12/12 07:24:21;;;;;;;27.77;17.33;;;2.00;99.90;;;;;;5014139;28;20207;-54
2022/12/12 07:26:48;;;;;;;26.77;17.83;;;2.00;99.90;;;;;;5014736;28;20233;-56
2022/12/12 07:29:15;;;;;;;25.30;17.03;;;2.10;99.90;;;;;;5015017;28;20482;-54
2022/12/12 07:31:41;;;;;;;25.53;17.03;;;2.00;99.90;;;;;;5014325;28;20583;-54
2022/12/12 07:34:08;;;;;;;23.23;15.97;;;1.90;99.90;;;;;;5014467;28;20214;-55
2022/12/12 07:36:35;;;;;;;25.63;16.87;;;1.80;99.90;;;;;;5070512;22;20340;-65
2022/12/12 07:39:02;;;;;;;27.77;17.00;;;1.80;99.90;;;;;;5053701;28;20236;-65
2022/12/12 07:41:30;;;;;;;24.67;15.80;;;1.80;99.90;;;;;;5053656;28;20301;-64
2022/12/12 07:43:56;;;;;;;26.20;16.77;;;1.80;99.90;;;;;;5053292;28;20320;-67
2022/12/12 07:46:25;;;;;;;25.57;17.43;;;1.80;99.90;;;;;;5053176;28;20252;-63
2022/12/12 07:48:52;;;;;;;24.80;16.63;;;1.90;99.90;;;;;;5053299;28;20296;-63
2022/12/12 07:51:19;;;;;;;23.77;16.00;;;1.90;99.90;;;;;;5053100;28;20707;-66
2022/12/12 07:53:46;;;;;;;25.70;16.87;;;1.90;99.90;;;;;;5052334;28;20220;-63
2022/12/12 07:56:15;;;;;;;22.50;15.20;;;2.00;99.90;;;;;;5053030;28;20233;-64
2022/12/12 07:58:43;;;;;;;24.10;15.30;;;2.00;99.90;;;;;;5053090;28;20579;-64
2022/12/12 08:01:12;;;;;;;24.87;15.73;;;2.10;99.90;;;;;;5053010;28;20673;-64
2022/12/12 08:03:39;;;;;;;24.03;14.93;;;2.10;99.90;;;;;;5052078;28;20213;-69
2022/12/12 08:06:06;;;;;;;24.03;15.27;;;2.00;99.90;;;;;;5053455;28;20225;-62
2022/12/12 08:08:33;;;;;;;22.90;14.67;;;1.90;99.90;;;;;;5053201;28;20208;-61
2022/12/12 08:11:04;;;;;;;24.47;15.33;;;1.90;99.90;;;;;;5053041;28;20209;-61
2022/12/12 08:13:32;;;;;;;20.83;13.67;;;1.90;99.90;;;;;;5052683;28;20213;-61
2022/12/12 08:16:00;;;;;;;22.93;14.63;;;1.80;99.90;;;;;;5052740;28;20742;-61
2022/12/12 08:18:26;;;;;;;22.00;15.40;;;1.80;99.90;;;;;;5052723;28;20209;-61
2022/12/12 08:20:53;;;;;;;22.53;14.63;;;1.80;99.90;;;;;;5053219;28;20727;-61
2022/12/12 08:23:20;;;;;;;22.90;14.43;;;1.70;99.90;;;;;;5053495;28;20205;-64
2022/12/12 08:25:47;;;;;;;22.27;14.83;;;1.80;99.90;;;;;;5053323;28;20229;-64
2022/12/12 08:28:14;;;;;;;26.73;15.30;;;1.90;99.90;;;;;;5054243;28;20673;-65
2022/12/12 08:30:41;;;;;;;18.80;13.50;;;2.10;99.90;;;;;;5053202;28;20201;-65
2022/12/12 08:33:09;;;;;;;20.60;14.57;;;2.30;99.90;;;;;;5052317;28;20308;-64
2022/12/12 08:35:36;;;;;;;21.83;14.70;;;2.50;99.90;;;;;;5051668;28;20236;-65
2022/12/12 08:38:03;;;;;;;22.93;14.63;;;2.60;99.90;;;;;;5052426;28;20205;-64
2022/12/12 08:40:30;;;;;;;20.77;14.43;;;2.80;99.90;;;;;;5052231;28;20316;-65
2022/12/12 08:42:56;;;;;;;22.27;15.57;;;2.90;99.90;;;;;;5051823;28;20235;-64
2022/12/12 08:45:23;;;;;;;24.63;14.87;;;3.00;99.90;;;;;;5052108;28;20222;-64
2022/12/12 08:47:50;;;;;;;26.27;14.47;;;3.10;99.90;;;;;;5052307;28;20692;-65
2022/12/12 08:50:18;;;;;;;23.70;14.53;;;3.10;99.90;;;;;;5052488;28;20201;-65
2022/12/12 08:52:45;;;;;;;25.80;15.13;;;3.10;99.90;;;;;;5051722;28;20213;-64
2022/12/12 08:55:11;;;;;;;24.60;14.90;;;3.20;99.90;;;;;;5052084;28;20272;-65
2022/12/12 08:57:38;;;;;;;21.00;14.17;;;3.40;99.90;;;;;;5052168;28;20217;-65
2022/12/12 09:00:06;;;;;;;24.20;14.80;;;3.40;99.90;;;;;;5052719;28;20217;-62
2022/12/12 09:02:33;;;;;;;22.43;14.87;;;3.50;99.90;;;;;;5051625;28;20282;-64
2022/12/12 09:05:00;;;;;;;22.97;15.43;;;3.50;99.90;;;;;;5052146;28;20233;-65
2022/12/12 09:07:28;;;;;;;21.77;14.30;;;3.40;99.90;;;;;;5052037;28;20216;-65
2022/12/12 09:09:55;;;;;;;21.93;15.30;;;3.30;99.90;;;;;;5051968;28;20205;-66
2022/12/12 09:12:21;;;;;;;23.13;15.47;;;3.00;99.90;;;;;;5051271;28;20206;-65
2022/12/12 09:14:48;;;;;;;19.43;14.60;;;2.60;99.90;;;;;;5052107;28;20236;-65
2022/12/12 09:17:15;;;;;;;23.03;15.57;;;2.40;99.90;;;;;;5051933;28;20213;-65
2022/12/12 09:19:41;;;;;;;25.00;15.67;;;2.20;99.90;;;;;;5051802;28;20236;-64
2022/12/12 09:22:08;;;;;;;23.20;15.20;;;2.30;99.90;;;;;;5051282;28;20696;-65
2022/12/12 09:24:36;;;;;;;27.77;15.30;;;2.40;99.90;;;;;;5051730;28;20692;-65
2022/12/12 09:27:04;;;;;;;24.40;15.13;;;2.40;99.90;;;;;;5051562;28;20237;-65
2022/12/12 09:29:30;;;;;;;22.73;15.90;;;2.50;99.90;;;;;;5051921;28;20202;-65
2022/12/12 09:31:57;;;;;;;31.40;16.53;;;2.80;99.90;;;;;;5051166;28;20213;-65
2022/12/12 09:34:24;;;;;;;24.90;15.87;;;3.20;99.90;;;;;;5051809;28;20202;-66
2022/12/12 09:36:50;;;;;;;25.50;15.03;;;3.40;99.90;;;;;;5051539;28;20712;-66
2022/12/12 09:39:17;;;;;;;23.77;14.90;;;3.50;99.90;;;;;;5051583;28;20233;-66
2022/12/12 09:41:45;;;;;;;22.87;15.27;;;3.60;99.90;;;;;;5051424;28;20236;-64
2022/12/12 09:44:17;;;;;;;22.10;15.30;;;3.80;99.90;;;;;;5051771;28;20229;-66
2022/12/12 09:46:46;;;;;;;23.27;15.27;;;4.10;99.90;;;;;;5053628;28;20611;-66
2022/12/12 09:49:15;;;;;;;21.73;14.73;;;4.30;99.90;;;;;;5055558;28;20211;-66
2022/12/12 09:51:46;;;;;;;21.57;15.57;;;4.50;99.90;;;;;;5055470;28;20216;-64
2022/12/12 09:54:16;;;;;;;22.30;16.03;;;4.70;99.90;;;;;;5055219;28;20217;-65
2022/12/12 09:56:55;;;;;;;23.13;14.63;;;5.00;99.90;;;;;;5055628;28;20233;-66
2022/12/12 09:59:31;;;;;;;21.67;15.30;;;5.10;99.90;;;;;;5055142;28;20316;-66
2022/12/12 10:02:05;;;;;;;22.73;14.53;;;4.70;99.90;;;;;;5054634;28;20221;-66
2022/12/12 10:04:39;;;;;;;21.17;15.07;;;4.50;99.90;;;;;;5055666;28;20214;-66
2022/12/12 10:07:13;;;;;;;23.30;15.50;;;4.60;99.90;;;;;;5055330;28;20679;-66
2022/12/12 10:09:53;;;;;;;23.83;15.93;;;5.20;99.90;;;;;;5055381;28;20581;-70
2022/12/12 10:12:22;;;;;;;23.10;15.03;;;5.00;99.90;;;;;;5054878;28;20263;-66
2022/12/12 10:14:53;;;;;;;24.30;15.93;;;5.00;99.90;;;;;;5055586;28;20217;-65
2022/12/12 10:17:25;;;;;;;23.07;16.00;;;4.80;99.90;;;;;;5055089;28;20209;-66
2022/12/12 10:19:54;;;;;;;22.63;15.47;;;4.70;99.90;;;;;;5055116;28;20248;-66
2022/12/12 10:22:30;;;;;;;20.83;13.70;;;4.60;99.90;;;;;;5054569;28;20204;-66
2022/12/12 10:25:03;;;;;;;19.63;13.60;;;4.40;99.90;;;;;;5055000;28;20712;-69
2022/12/12 10:27:31;;;;;;;19.00;13.33;;;4.10;99.90;;;;;;5054403;28;20584;-66
2022/12/12 10:30:06;;;;;;;18.23;12.83;;;3.90;99.90;;;;;;5055407;28;20220;-66
2022/12/12 10:32:43;;;;;;;20.00;12.03;;;3.60;99.90;;;;;;5054321;28;20573;-65
2022/12/12 10:35:17;;;;;;;16.27;11.57;;;3.40;99.90;;;;;;5054550;28;20233;-66
2022/12/12 10:37:54;;;;;;;16.40;10.63;;;3.40;99.90;;;;;;5054462;28;20735;-66
2022/12/12 10:40:35;;;;;;;15.80;11.03;;;3.40;99.90;;;;;;5054702;28;20583;-66
2022/12/12 10:43:10;;;;;;;17.00;11.50;;;3.40;99.90;;;;;;5054224;28;20213;-66
2022/12/12 10:45:50;;;;;;;19.07;10.90;;;3.50;99.90;;;;;;5054671;28;20229;-66
2022/12/12 10:48:17;;;;;;;15.60;10.70;;;3.50;99.90;;;;;;5054657;28;20216;-66
2022/12/12 10:50:48;;;;;;;17.93;12.10;;;3.50;99.90;;;;;;5054872;28;20233;-66
2022/12/12 10:53:15;;;;;;;19.03;11.70;;;3.50;99.90;;;;;;5054470;28;20205;-66
2022/12/12 10:55:49;;;;;;;19.60;11.47;;;3.60;99.90;;;;;;5054635;28;20233;-65
2022/12/12 10:58:17;;;;;;;16.30;11.30;;;3.60;99.90;;;;;;5053758;28;20202;-66
2022/12/12 11:00:46;;;;;;;16.20;11.13;;;3.70;99.90;;;;;;5054643;28;20225;-65
2022/12/12 11:03:26;;;;;;;19.57;13.10;;;3.80;99.90;;;;;;5054022;28;20603;-66
2022/12/12 11:05:54;;;;;;;21.57;14.57;;;3.90;99.90;;;;;;5054213;28;20821;-66
2022/12/12 11:08:28;;;;;;;22.53;13.60;;;3.90;99.90;;;;;;5054570;28;20218;-66
2022/12/12 11:11:07;;;;;;;20.40;13.17;;;3.70;99.90;;;;;;5054783;28;20654;-65
2022/12/12 11:13:46;;;;;;;18.73;13.10;;;3.50;99.90;;;;;;5053948;28;20263;-64
2022/12/12 11:16:16;;;;;;;19.23;13.73;;;3.10;99.90;;;;;;5054204;28;20229;-65
2022/12/12 11:18:58;;;;;;;19.67;13.57;;;2.80;99.90;;;;;;5054604;28;20217;-66
2022/12/12 11:21:25;;;;;;;18.73;13.03;;;3.00;99.90;;;;;;5054156;28;20763;-64
2022/12/12 11:23:55;;;;;;;17.20;12.83;;;3.30;99.90;;;;;;5038726;28;20206;-64
2022/12/12 11:26:23;;;;;;;19.67;13.03;;;3.50;99.90;;;;;;5032596;28;20226;-65
2022/12/12 11:28:56;;;;;;;21.20;14.03;;;3.40;99.90;;;;;;5033115;28;20210;-66
2022/12/12 11:31:27;;;;;;;22.80;14.70;;;3.30;99.90;;;;;;5033099;28;20203;-64
2022/12/12 11:33:57;;;;;;;22.50;14.37;;;3.10;99.90;;;;;;5042452;28;20206;-65
2022/12/12 11:36:31;;;;;;;21.20;14.53;;;3.00;99.90;;;;;;5051936;28;20241;-66
2022/12/12 11:39:00;;;;;;;25.33;15.57;;;3.00;99.90;;;;;;5053082;28;20213;-65
2022/12/12 11:41:27;;;;;;;19.50;13.90;;;3.00;99.90;;;;;;5052419;28;20229;-61
2022/12/12 11:43:59;;;;;;;22.93;13.67;;;3.10;99.90;;;;;;5052166;28;20205;-63
2022/12/12 11:46:28;;;;;;;19.47;13.70;;;3.00;99.90;;;;;;5051734;28;20642;-64
2022/12/12 11:49:03;;;;;;;21.17;14.53;;;3.10;99.90;;;;;;5052774;28;20217;-65
2022/12/12 11:51:36;;;;;;;20.70;13.87;;;3.00;99.90;;;;;;5052201;28;20213;-65
2022/12/12 11:54:07;;;;;;;22.20;13.90;;;3.10;99.90;;;;;;5051899;28;20217;-64
2022/12/12 11:56:44;;;;;;;20.80;14.43;;;3.00;99.90;;;;;;5051661;28;20713;-65
2022/12/12 11:59:37;;;;;;;18.97;13.17;;;3.20;99.90;;;;;;5052085;28;21259;-66
2022/12/12 12:02:28;;;;;;;18.53;13.23;;;3.30;99.90;;;;;;5051643;28;20554;-64
2022/12/12 12:05:05;;;;;;;20.67;13.50;;;3.40;99.90;;;;;;5051123;28;20634;-66
2022/12/12 12:07:47;;;;;;;21.27;14.50;;;3.50;99.90;;;;;;5051805;28;20209;-66
2022/12/12 12:10:21;;;;;;;20.70;14.27;;;3.60;99.90;;;;;;5052131;28;20568;-66
2022/12/12 12:12:55;;;;;;;25.60;14.60;;;3.50;99.90;;;;;;5051933;28;20571;-62
2022/12/12 12:15:34;;;;;;;20.50;14.23;;;3.40;99.90;;;;;;5051544;28;20232;-64
2022/12/12 12:18:17;;;;;;;22.10;15.57;;;3.30;99.90;;;;;;5051565;28;20212;-64
2022/12/12 12:21:00;;;;;;;22.00;14.87;;;3.30;99.90;;;;;;5052371;28;20286;-65
2022/12/12 12:23:37;;;;;;;23.43;14.87;;;3.40;99.90;;;;;;5052242;28;20272;-69
2022/12/12 12:26:09;;;;;;;20.43;13.67;;;3.50;99.90;;;;;;5052710;28;20236;-65
2022/12/12 12:29:11;;;;;;;21.20;14.00;;;3.50;99.90;;;;;;5052588;28;20209;-64
2022/12/12 12:31:50;;;;;;;20.53;13.00;;;3.40;99.90;;;;;;5026338;28;20584;-66
2022/12/12 12:34:24;;;;;;;19.87;12.40;;;3.40;99.90;;;;;;5050852;28;20258;-64
2022/12/12 12:37:07;;;;;;;17.80;12.30;;;3.40;99.90;;;;;;5051308;28;20248;-63
2022/12/12 12:39:51;;;;;;;22.33;13.73;;;3.50;99.90;;;;;;5051384;28;20213;-67
2022/12/12 12:42:31;;;;;;;20.50;11.87;;;3.50;99.90;;;;;;5050183;28;20582;-66
2022/12/12 12:45:06;;;;;;;18.83;12.20;;;3.40;99.90;;;;;;5050991;28;20235;-66
2022/12/12 12:47:46;;;;;;;17.30;10.93;;;3.30;99.90;;;;;;5051816;28;20209;-65
2022/12/12 12:50:17;;;;;;;16.33;11.60;;;3.20;99.90;;;;;;5051393;28;20208;-64
2022/12/12 12:52:51;;;;;;;17.10;10.83;;;3.10;99.90;;;;;;5050742;28;20228;-66
2022/12/12 12:55:21;;;;;;;19.30;11.90;;;3.10;99.90;;;;;;5051419;28;20705;-68
2022/12/12 12:57:50;;;;;;;17.63;12.23;;;3.20;99.90;;;;;;5052352;28;20201;-64
2022/12/12 13:00:19;;;;;;;17.27;11.60;;;3.30;99.90;;;;;;5052475;28;20221;-64
2022/12/12 13:02:55;;;;;;;17.17;11.93;;;3.30;99.90;;;;;;5051708;28;20220;-64
2022/12/12 13:05:29;;;;;;;20.50;11.80;;;3.20;99.90;;;;;;5050143;28;20236;-63
2022/12/12 13:08:01;;;;;;;18.70;12.30;;;3.00;99.90;;;;;;5050531;28;20213;-64